sensor_id;sensor_type;location;lat;lon;timestamp;temperature;humidity
14008;DHT22;61651;45.508;12.232;2023-09-18T00:02:50;24.10;99.90
14008;DHT22;61651;45.508;12.232;2023-09-18T00:05:53;24.10;99.90
14008;DHT22;61651;45.508;12.232;2023-09-18T00:08:55;24.00;99.90
14008;DHT22;61651;45.508;12.232;2023-09-18T00:11:57;24.00;99.90
14008;DHT22;61651;45.508;12.232;2023-09-18T00:14:59;24.00;99.90
14008;DHT22;61651;45.508;12.232;2023-09-18T00:18:01;24.00;99.90
14008;DHT22;61651;45.508;12.232;2023-09-18T00:21:05;23.90;99.90
14008;DHT22;61651;45.508;12.232;2023-09-18T00:24:07;23.90;99.90
14008;DHT22;61651;45.508;12.232;2023-09-18T00:27:09;23.90;99.90
14008;DHT22;61651;45.508;12.232;2023-09-18T00:30:12;23.90;99.90
14008;DHT22;61651;45.508;12.232;2023-09-18T00:33:14;24.00;99.90
14008;DHT22;61651;45.508;12.232;2023-09-18T00:36:18;24.00;99.90
14008;DHT22;61651;45.508;12.232;2023-09-18T00:39:20;23.90;99.90
14008;DHT22;61651;45.508;12.232;2023-09-18T00:42:22;23.90;99.90
14008;DHT22;61651;45.508;12.232;2023-09-18T00:45:24;23.90;99.90
14008;DHT22;61651;45.508;12.232;2023-09-18T00:48:26;23.90;99.90
14008;DHT22;61651;45.508;12.232;2023-09-18T00:51:30;23.80;99.90
14008;DHT22;61651;45.508;12.232;2023-09-18T00:54:33;23.90;99.90
14008;DHT22;61651;45.508;12.232;2023-09-18T00:57:36;23.80;99.90
14008;DHT22;61651;45.508;12.232;2023-09-18T01:00:39;23.80;99.90
14008;DHT22;61651;45.508;12.232;2023-09-18T01:03:41;23.80;99.90
14008;DHT22;61651;45.508;12.232;2023-09-18T01:06:45;23.80;99.90
14008;DHT22;61651;45.508;12.232;2023-09-18T01:09:49;23.80;99.90
14008;DHT22;61651;45.508;12.232;2023-09-18T01:12:57;23.80;99.90
14008;DHT22;61651;45.508;12.232;2023-09-18T01:16:03;23.80;99.90
14008;DHT22;61651;45.508;12.232;2023-09-18T01:19:08;23.80;99.90
14008;DHT22;61651;45.508;12.232;2023-09-18T01:22:13;23.80;99.90
14008;DHT22;61651;45.508;12.232;2023-09-18T01:25:16;23.80;99.90
14008;DHT22;61651;45.508;12.232;2023-09-18T01:28:18;23.70;99.90
14008;DHT22;61651;45.508;12.232;2023-09-18T01:31:21;23.70;99.90
14008;DHT22;61651;45.508;12.232;2023-09-18T01:34:26;23.70;99.90
14008;DHT22;61651;45.508;12.232;2023-09-18T01:37:33;23.80;99.90
14008;DHT22;61651;45.508;12.232;2023-09-18T01:40:37;23.80;99.90
14008;DHT22;61651;45.508;12.232;2023-09-18T01:43:39;23.70;99.90
14008;DHT22;61651;45.508;12.232;2023-09-18T01:46:42;23.70;99.90
14008;DHT22;61651;45.508;12.232;2023-09-18T01:49:44;23.70;99.90
14008;DHT22;61651;45.508;12.232;2023-09-18T01:52:47;23.70;99.90
14008;DHT22;61651;45.508;12.232;2023-09-18T01:55:50;23.70;99.90
14008;DHT22;61651;45.508;12.232;2023-09-18T01:58:53;23.70;99.90
14008;DHT22;61651;45.508;12.232;2023-09-18T02:01:55;23.70;99.90
14008;DHT22;61651;45.508;12.232;2023-09-18T02:04:57;23.70;99.90
14008;DHT22;61651;45.508;12.232;2023-09-18T02:07:59;23.70;99.90
14008;DHT22;61651;45.508;12.232;2023-09-18T02:11:02;23.70;99.90
14008;DHT22;61651;45.508;12.232;2023-09-18T02:14:05;23.70;99.90
14008;DHT22;61651;45.508;12.232;2023-09-18T02:17:07;23.70;99.90
14008;DHT22;61651;45.508;12.232;2023-09-18T02:20:10;23.70;99.90
14008;DHT22;61651;45.508;12.232;2023-09-18T02:23:12;23.70;99.90
14008;DHT22;61651;45.508;12.232;2023-09-18T02:26:15;23.70;99.90
14008;DHT22;61651;45.508;12.232;2023-09-18T02:29:17;23.70;99.90
14008;DHT22;61651;45.508;12.232;2023-09-18T02:32:19;23.70;99.90
14008;DHT22;61651;45.508;12.232;2023-09-18T02:35:21;23.70;99.90
14008;DHT22;61651;45.508;12.232;2023-09-18T02:38:23;23.70;99.90
14008;DHT22;61651;45.508;12.232;2023-09-18T02:41:26;23.70;99.90
14008;DHT22;61651;45.508;12.232;2023-09-18T02:44:28;23.70;99.90
14008;DHT22;61651;45.508;12.232;2023-09-18T02:47:30;23.70;99.90
14008;DHT22;61651;45.508;12.232;2023-09-18T02:50:32;23.70;99.90
14008;DHT22;61651;45.508;12.232;2023-09-18T02:53:34;23.70;99.90
14008;DHT22;61651;45.508;12.232;2023-09-18T02:56:38;23.70;99.90
14008;DHT22;61651;45.508;12.232;2023-09-18T02:59:40;23.70;99.90
14008;DHT22;61651;45.508;12.232;2023-09-18T03:02:41;23.60;99.90
14008;DHT22;61651;45.508;12.232;2023-09-18T03:05:44;23.60;99.90
14008;DHT22;61651;45.508;12.232;2023-09-18T03:08:46;23.60;99.90
14008;DHT22;61651;45.508;12.232;2023-09-18T03:11:50;23.60;99.90
14008;DHT22;61651;45.508;12.232;2023-09-18T03:14:52;23.60;99.90
14008;DHT22;61651;45.508;12.232;2023-09-18T03:17:54;23.60;99.90
14008;DHT22;61651;45.508;12.232;2023-09-18T03:20:56;23.50;99.90
14008;DHT22;61651;45.508;12.232;2023-09-18T03:23:58;23.60;99.90
14008;DHT22;61651;45.508;12.232;2023-09-18T03:27:02;23.60;99.90
14008;DHT22;61651;45.508;12.232;2023-09-18T03:30:05;23.60;99.90
14008;DHT22;61651;45.508;12.232;2023-09-18T03:33:08;23.60;99.90
14008;DHT22;61651;45.508;12.232;2023-09-18T03:36:10;23.60;99.90
14008;DHT22;61651;45.508;12.232;2023-09-18T03:39:12;23.70;99.90
14008;DHT22;61651;45.508;12.232;2023-09-18T03:42:15;23.60;99.90
14008;DHT22;61651;45.508;12.232;2023-09-18T03:45:17;23.60;99.90
14008;DHT22;61651;45.508;12.232;2023-09-18T03:48:20;23.60;99.90
14008;DHT22;61651;45.508;12.232;2023-09-18T03:51:22;23.60;99.90
14008;DHT22;61651;45.508;12.232;2023-09-18T03:54:24;23.60;99.90
14008;DHT22;61651;45.508;12.232;2023-09-18T03:57:27;23.60;99.90
14008;DHT22;61651;45.508;12.232;2023-09-18T04:00:29;23.60;99.90
14008;DHT22;61651;45.508;12.232;2023-09-18T04:03:31;23.60;99.90
14008;DHT22;61651;45.508;12.232;2023-09-18T04:06:37;23.60;99.90
14008;DHT22;61651;45.508;12.232;2023-09-18T04:09:39;23.60;99.90
14008;DHT22;61651;45.508;12.232;2023-09-18T04:12:42;23.60;99.90
14008;DHT22;61651;45.508;12.232;2023-09-18T04:15:46;23.60;99.90
14008;DHT22;61651;45.508;12.232;2023-09-18T04:18:48;23.60;99.90
14008;DHT22;61651;45.508;12.232;2023-09-18T04:21:51;23.60;99.90
14008;DHT22;61651;45.508;12.232;2023-09-18T04:24:52;23.60;99.90
14008;DHT22;61651;45.508;12.232;2023-09-18T04:27:56;23.60;99.90
14008;DHT22;61651;45.508;12.232;2023-09-18T04:30:58;23.50;99.90
14008;DHT22;61651;45.508;12.232;2023-09-18T04:34:00;23.50;99.90
14008;DHT22;61651;45.508;12.232;2023-09-18T04:37:02;23.50;99.90
14008;DHT22;61651;45.508;12.232;2023-09-18T04:40:06;23.50;99.90
14008;DHT22;61651;45.508;12.232;2023-09-18T04:43:13;23.40;99.90
14008;DHT22;61651;45.508;12.232;2023-09-18T04:46:15;23.30;99.90
14008;DHT22;61651;45.508;12.232;2023-09-18T04:49:17;23.30;99.90
14008;DHT22;61651;45.508;12.232;2023-09-18T04:52:19;23.30;99.90
14008;DHT22;61651;45.508;12.232;2023-09-18T04:55:21;23.40;99.90
14008;DHT22;61651;45.508;12.232;2023-09-18T04:58:25;23.40;99.90
14008;DHT22;61651;45.508;12.232;2023-09-18T05:01:27;23.50;99.90
14008;DHT22;61651;45.508;12.232;2023-09-18T05:04:30;23.50;99.90
14008;DHT22;61651;45.508;12.232;2023-09-18T05:07:32;23.50;99.90
14008;DHT22;61651;45.508;12.232;2023-09-18T05:10:34;23.50;99.90
14008;DHT22;61651;45.508;12.232;2023-09-18T05:13:38;23.50;99.90
14008;DHT22;61651;45.508;12.232;2023-09-18T05:16:40;23.50;99.90
14008;DHT22;61651;45.508;12.232;2023-09-18T05:19:42;23.60;99.90
14008;DHT22;61651;45.508;12.232;2023-09-18T05:22:45;23.60;99.90
14008;DHT22;61651;45.508;12.232;2023-09-18T05:25:47;23.60;99.90
14008;DHT22;61651;45.508;12.232;2023-09-18T05:28:50;23.60;99.90
14008;DHT22;61651;45.508;12.232;2023-09-18T05:31:54;23.70;99.90
14008;DHT22;61651;45.508;12.232;2023-09-18T05:34:56;23.60;99.90
14008;DHT22;61651;45.508;12.232;2023-09-18T05:38:03;23.60;99.90
14008;DHT22;61651;45.508;12.232;2023-09-18T05:41:05;23.70;99.90
14008;DHT22;61651;45.508;12.232;2023-09-18T05:44:09;23.70;99.90
14008;DHT22;61651;45.508;12.232;2023-09-18T05:47:11;23.70;99.90
14008;DHT22;61651;45.508;12.232;2023-09-18T05:50:13;23.70;99.90
14008;DHT22;61651;45.508;12.232;2023-09-18T05:53:17;23.70;99.90
14008;DHT22;61651;45.508;12.232;2023-09-18T05:56:19;23.70;99.90
14008;DHT22;61651;45.508;12.232;2023-09-18T05:59:23;23.50;99.90
14008;DHT22;61651;45.508;12.232;2023-09-18T06:02:25;23.60;99.90
14008;DHT22;61651;45.508;12.232;2023-09-18T06:05:27;23.70;99.90
14008;DHT22;61651;45.508;12.232;2023-09-18T06:08:31;23.80;99.90
14008;DHT22;61651;45.508;12.232;2023-09-18T06:11:34;23.90;99.90
14008;DHT22;61651;45.508;12.232;2023-09-18T06:14:37;23.90;99.90
14008;DHT22;61651;45.508;12.232;2023-09-18T06:17:40;23.90;99.90
14008;DHT22;61651;45.508;12.232;2023-09-18T06:20:42;23.90;99.90
14008;DHT22;61651;45.508;12.232;2023-09-18T06:23:45;23.90;99.90
14008;DHT22;61651;45.508;12.232;2023-09-18T06:26:47;23.80;99.90
14008;DHT22;61651;45.508;12.232;2023-09-18T06:29:51;23.80;99.90
14008;DHT22;61651;45.508;12.232;2023-09-18T06:32:53;23.90;99.90
14008;DHT22;61651;45.508;12.232;2023-09-18T06:35:55;24.00;99.90
14008;DHT22;61651;45.508;12.232;2023-09-18T06:38:57;24.20;99.90
14008;DHT22;61651;45.508;12.232;2023-09-18T06:42:00;24.30;99.90
14008;DHT22;61651;45.508;12.232;2023-09-18T06:45:04;24.40;99.90
14008;DHT22;61651;45.508;12.232;2023-09-18T06:48:07;24.60;99.90
14008;DHT22;61651;45.508;12.232;2023-09-18T06:51:09;24.70;99.90
14008;DHT22;61651;45.508;12.232;2023-09-18T06:54:11;24.80;99.90
14008;DHT22;61651;45.508;12.232;2023-09-18T06:57:13;24.80;99.90
14008;DHT22;61651;45.508;12.232;2023-09-18T07:00:17;24.80;99.90
14008;DHT22;61651;45.508;12.232;2023-09-18T07:03:21;24.90;99.90
14008;DHT22;61651;45.508;12.232;2023-09-18T07:06:24;24.90;99.90
14008;DHT22;61651;45.508;12.232;2023-09-18T07:09:26;25.00;99.90
14008;DHT22;61651;45.508;12.232;2023-09-18T07:12:28;25.00;99.90
14008;DHT22;61651;45.508;12.232;2023-09-18T07:15:31;25.00;99.90
14008;DHT22;61651;45.508;12.232;2023-09-18T07:18:33;25.10;99.90
14008;DHT22;61651;45.508;12.232;2023-09-18T07:21:35;25.10;99.90
14008;DHT22;61651;45.508;12.232;2023-09-18T07:24:38;25.20;99.90
14008;DHT22;61651;45.508;12.232;2023-09-18T07:27:42;25.30;99.90
14008;DHT22;61651;45.508;12.232;2023-09-18T07:30:46;25.30;99.90
14008;DHT22;61651;45.508;12.232;2023-09-18T07:33:48;25.30;99.90
14008;DHT22;61651;45.508;12.232;2023-09-18T07:36:52;25.30;99.90
14008;DHT22;61651;45.508;12.232;2023-09-18T07:39:56;25.30;99.90
14008;DHT22;61651;45.508;12.232;2023-09-18T07:42:58;25.30;99.90
14008;DHT22;61651;45.508;12.232;2023-09-18T07:46:01;25.30;99.90
14008;DHT22;61651;45.508;12.232;2023-09-18T07:49:03;25.40;99.90
14008;DHT22;61651;45.508;12.232;2023-09-18T07:52:05;25.50;99.90
14008;DHT22;61651;45.508;12.232;2023-09-18T07:55:09;25.50;99.90
14008;DHT22;61651;45.508;12.232;2023-09-18T07:58:11;25.50;99.90
14008;DHT22;61651;45.508;12.232;2023-09-18T08:01:15;25.60;99.90
14008;DHT22;61651;45.508;12.232;2023-09-18T08:04:17;25.70;99.90
14008;DHT22;61651;45.508;12.232;2023-09-18T08:07:19;25.80;99.90
14008;DHT22;61651;45.508;12.232;2023-09-18T08:10:22;25.80;99.90
14008;DHT22;61651;45.508;12.232;2023-09-18T08:13:24;25.90;99.90
14008;DHT22;61651;45.508;12.232;2023-09-18T08:16:27;25.90;99.90
14008;DHT22;61651;45.508;12.232;2023-09-18T08:19:30;25.90;99.90
14008;DHT22;61651;45.508;12.232;2023-09-18T08:22:33;25.90;99.90
14008;DHT22;61651;45.508;12.232;2023-09-18T08:25:35;25.80;99.90
14008;DHT22;61651;45.508;12.232;2023-09-18T08:28:37;25.90;99.90
14008;DHT22;61651;45.508;12.232;2023-09-18T08:31:45;25.90;99.90
14008;DHT22;61651;45.508;12.232;2023-09-18T08:34:47;26.00;99.90
14008;DHT22;61651;45.508;12.232;2023-09-18T08:37:49;26.10;99.90
14008;DHT22;61651;45.508;12.232;2023-09-18T08:40:53;26.30;99.90
14008;DHT22;61651;45.508;12.232;2023-09-18T08:43:58;26.40;99.90
14008;DHT22;61651;45.508;12.232;2023-09-18T08:47:03;26.50;99.90
14008;DHT22;61651;45.508;12.232;2023-09-18T08:50:06;26.60;99.90
14008;DHT22;61651;45.508;12.232;2023-09-18T08:53:10;26.80;99.90
14008;DHT22;61651;45.508;12.232;2023-09-18T08:56:13;26.90;99.90
14008;DHT22;61651;45.508;12.232;2023-09-18T08:59:15;27.00;99.90
14008;DHT22;61651;45.508;12.232;2023-09-18T09:02:19;27.10;99.90
14008;DHT22;61651;45.508;12.232;2023-09-18T09:05:21;27.10;99.90
14008;DHT22;61651;45.508;12.232;2023-09-18T09:08:24;27.20;99.90
14008;DHT22;61651;45.508;12.232;2023-09-18T09:11:26;27.30;99.90
14008;DHT22;61651;45.508;12.232;2023-09-18T09:14:28;27.40;99.90
14008;DHT22;61651;45.508;12.232;2023-09-18T09:17:31;27.40;99.90
14008;DHT22;61651;45.508;12.232;2023-09-18T09:20:33;27.40;99.90
14008;DHT22;61651;45.508;12.232;2023-09-18T09:23:46;27.40;99.90
14008;DHT22;61651;45.508;12.232;2023-09-18T09:26:57;27.40;99.90
14008;DHT22;61651;45.508;12.232;2023-09-18T09:30:00;27.40;99.90
14008;DHT22;61651;45.508;12.232;2023-09-18T09:33:06;27.30;99.90
14008;DHT22;61651;45.508;12.232;2023-09-18T09:36:08;27.20;99.90
14008;DHT22;61651;45.508;12.232;2023-09-18T09:39:10;27.20;99.90
14008;DHT22;61651;45.508;12.232;2023-09-18T09:42:16;27.20;99.90
14008;DHT22;61651;45.508;12.232;2023-09-18T09:45:23;27.10;99.90
14008;DHT22;61651;45.508;12.232;2023-09-18T09:48:27;27.10;99.90
14008;DHT22;61651;45.508;12.232;2023-09-18T09:51:31;27.10;99.90
14008;DHT22;61651;45.508;12.232;2023-09-18T09:54:33;27.10;99.90
14008;DHT22;61651;45.508;12.232;2023-09-18T09:57:47;27.10;99.90
14008;DHT22;61651;45.508;12.232;2023-09-18T10:00:52;27.10;99.90
14008;DHT22;61651;45.508;12.232;2023-09-18T10:03:59;27.10;99.90
14008;DHT22;61651;45.508;12.232;2023-09-18T10:07:06;27.10;99.90
14008;DHT22;61651;45.508;12.232;2023-09-18T10:10:09;27.10;99.90
14008;DHT22;61651;45.508;12.232;2023-09-18T10:13:15;27.10;99.90
14008;DHT22;61651;45.508;12.232;2023-09-18T10:16:19;27.10;99.90
14008;DHT22;61651;45.508;12.232;2023-09-18T10:19:27;27.20;99.90
14008;DHT22;61651;45.508;12.232;2023-09-18T10:22:38;27.30;99.90
14008;DHT22;61651;45.508;12.232;2023-09-18T10:25:43;27.30;99.90
14008;DHT22;61651;45.508;12.232;2023-09-18T10:28:46;27.40;99.90
14008;DHT22;61651;45.508;12.232;2023-09-18T10:31:50;27.40;99.90
14008;DHT22;61651;45.508;12.232;2023-09-18T10:34:54;27.40;99.90
14008;DHT22;61651;45.508;12.232;2023-09-18T10:37:57;27.40;99.90
14008;DHT22;61651;45.508;12.232;2023-09-18T10:41:00;27.50;99.90
14008;DHT22;61651;45.508;12.232;2023-09-18T10:44:04;27.50;99.90
14008;DHT22;61651;45.508;12.232;2023-09-18T10:47:08;27.50;99.90
14008;DHT22;61651;45.508;12.232;2023-09-18T10:50:12;27.50;99.90
14008;DHT22;61651;45.508;12.232;2023-09-18T10:53:14;27.60;99.90
14008;DHT22;61651;45.508;12.232;2023-09-18T10:56:16;27.60;99.90
14008;DHT22;61651;45.508;12.232;2023-09-18T10:59:18;27.60;99.90
14008;DHT22;61651;45.508;12.232;2023-09-18T11:02:21;27.60;99.90
14008;DHT22;61651;45.508;12.232;2023-09-18T11:05:32;27.60;99.90
14008;DHT22;61651;45.508;12.232;2023-09-18T11:08:36;27.70;99.90
14008;DHT22;61651;45.508;12.232;2023-09-18T11:11:46;27.60;99.90
14008;DHT22;61651;45.508;12.232;2023-09-18T11:14:56;27.60;99.90
14008;DHT22;61651;45.508;12.232;2023-09-18T11:17:59;27.70;99.90
14008;DHT22;61651;45.508;12.232;2023-09-18T11:21:10;27.70;99.90
14008;DHT22;61651;45.508;12.232;2023-09-18T11:24:17;27.70;99.90
14008;DHT22;61651;45.508;12.232;2023-09-18T11:27:24;27.70;99.90
14008;DHT22;61651;45.508;12.232;2023-09-18T11:30:26;27.70;99.90
14008;DHT22;61651;45.508;12.232;2023-09-18T11:33:36;27.70;99.90
14008;DHT22;61651;45.508;12.232;2023-09-18T11:36:40;27.70;99.90
14008;DHT22;61651;45.508;12.232;2023-09-18T11:39:42;27.70;99.90
14008;DHT22;61651;45.508;12.232;2023-09-18T11:46:23;27.70;99.90
14008;DHT22;61651;45.508;12.232;2023-09-18T11:49:25;27.60;99.90
14008;DHT22;61651;45.508;12.232;2023-09-18T11:52:30;27.60;99.90
14008;DHT22;61651;45.508;12.232;2023-09-18T11:55:33;27.70;99.90
14008;DHT22;61651;45.508;12.232;2023-09-18T11:58:45;27.70;99.90
14008;DHT22;61651;45.508;12.232;2023-09-18T12:01:53;27.80;99.90
14008;DHT22;61651;45.508;12.232;2023-09-18T12:05:05;27.90;99.90
14008;DHT22;61651;45.508;12.232;2023-09-18T12:08:08;28.00;99.90
14008;DHT22;61651;45.508;12.232;2023-09-18T12:11:11;28.20;99.90
14008;DHT22;61651;45.508;12.232;2023-09-18T12:14:19;28.30;99.90
14008;DHT22;61651;45.508;12.232;2023-09-18T12:17:21;28.50;99.90
14008;DHT22;61651;45.508;12.232;2023-09-18T12:20:24;28.60;99.90
14008;DHT22;61651;45.508;12.232;2023-09-18T12:23:28;28.70;99.90
14008;DHT22;61651;45.508;12.232;2023-09-18T12:26:30;28.90;99.90
14008;DHT22;61651;45.508;12.232;2023-09-18T12:29:33;29.00;99.90
14008;DHT22;61651;45.508;12.232;2023-09-18T12:32:36;29.20;99.90
14008;DHT22;61651;45.508;12.232;2023-09-18T12:35:40;29.30;99.90
14008;DHT22;61651;45.508;12.232;2023-09-18T12:38:45;29.30;99.90
14008;DHT22;61651;45.508;12.232;2023-09-18T12:41:56;29.30;99.90
14008;DHT22;61651;45.508;12.232;2023-09-18T12:44:58;29.20;99.90
14008;DHT22;61651;45.508;12.232;2023-09-18T12:48:01;29.30;99.90
14008;DHT22;61651;45.508;12.232;2023-09-18T12:51:04;29.20;99.90
14008;DHT22;61651;45.508;12.232;2023-09-18T12:54:08;29.30;99.90
14008;DHT22;61651;45.508;12.232;2023-09-18T12:57:15;29.30;99.90
14008;DHT22;61651;45.508;12.232;2023-09-18T13:00:19;29.30;99.90
14008;DHT22;61651;45.508;12.232;2023-09-18T13:03:23;29.20;99.90
14008;DHT22;61651;45.508;12.232;2023-09-18T13:06:25;29.10;99.90
14008;DHT22;61651;45.508;12.232;2023-09-18T13:09:28;29.10;99.90
14008;DHT22;61651;45.508;12.232;2023-09-18T13:12:40;29.00;99.90
14008;DHT22;61651;45.508;12.232;2023-09-18T13:15:42;29.00;99.90
14008;DHT22;61651;45.508;12.232;2023-09-18T13:18:46;29.00;99.90
14008;DHT22;61651;45.508;12.232;2023-09-18T13:21:50;29.10;99.90
14008;DHT22;61651;45.508;12.232;2023-09-18T13:24:57;29.10;99.90
14008;DHT22;61651;45.508;12.232;2023-09-18T13:27:59;29.10;99.90
14008;DHT22;61651;45.508;12.232;2023-09-18T13:31:02;29.20;99.90
14008;DHT22;61651;45.508;12.232;2023-09-18T13:34:05;29.20;99.90
14008;DHT22;61651;45.508;12.232;2023-09-18T13:37:07;29.30;99.90
14008;DHT22;61651;45.508;12.232;2023-09-18T13:40:11;29.30;99.90
14008;DHT22;61651;45.508;12.232;2023-09-18T13:43:14;29.30;99.90
14008;DHT22;61651;45.508;12.232;2023-09-18T13:46:16;29.30;99.90
14008;DHT22;61651;45.508;12.232;2023-09-18T13:49:18;29.30;99.90
14008;DHT22;61651;45.508;12.232;2023-09-18T13:52:20;29.30;99.90
14008;DHT22;61651;45.508;12.232;2023-09-18T13:55:23;29.10;99.90
14008;DHT22;61651;45.508;12.232;2023-09-18T13:58:25;29.00;99.90
14008;DHT22;61651;45.508;12.232;2023-09-18T14:01:28;29.00;99.90
14008;DHT22;61651;45.508;12.232;2023-09-18T14:04:30;29.00;99.90
14008;DHT22;61651;45.508;12.232;2023-09-18T14:07:33;28.90;99.90
14008;DHT22;61651;45.508;12.232;2023-09-18T14:10:36;28.90;99.90
14008;DHT22;61651;45.508;12.232;2023-09-18T14:13:40;29.00;99.90
14008;DHT22;61651;45.508;12.232;2023-09-18T14:16:43;29.00;99.90
14008;DHT22;61651;45.508;12.232;2023-09-18T14:19:45;29.00;99.90
14008;DHT22;61651;45.508;12.232;2023-09-18T14:22:47;28.90;99.90
14008;DHT22;61651;45.508;12.232;2023-09-18T14:25:51;28.90;99.90
14008;DHT22;61651;45.508;12.232;2023-09-18T14:28:53;28.90;99.90
14008;DHT22;61651;45.508;12.232;2023-09-18T14:31:56;28.90;99.90
14008;DHT22;61651;45.508;12.232;2023-09-18T14:34:58;29.00;99.90
14008;DHT22;61651;45.508;12.232;2023-09-18T14:38:01;29.20;99.90
14008;DHT22;61651;45.508;12.232;2023-09-18T14:41:06;29.20;99.90
14008;DHT22;61651;45.508;12.232;2023-09-18T14:44:10;29.20;99.90
14008;DHT22;61651;45.508;12.232;2023-09-18T14:47:12;29.20;99.90
14008;DHT22;61651;45.508;12.232;2023-09-18T14:50:14;29.10;99.90
14008;DHT22;61651;45.508;12.232;2023-09-18T14:53:16;29.20;99.90
14008;DHT22;61651;45.508;12.232;2023-09-18T14:56:19;29.20;99.90
14008;DHT22;61651;45.508;12.232;2023-09-18T14:59:21;29.30;99.90
14008;DHT22;61651;45.508;12.232;2023-09-18T15:02:23;29.30;99.90
14008;DHT22;61651;45.508;12.232;2023-09-18T15:05:30;29.30;99.90
14008;DHT22;61651;45.508;12.232;2023-09-18T15:08:32;29.30;99.90
14008;DHT22;61651;45.508;12.232;2023-09-18T15:11:35;29.30;99.90
14008;DHT22;61651;45.508;12.232;2023-09-18T15:14:37;29.30;99.90
14008;DHT22;61651;45.508;12.232;2023-09-18T15:17:39;29.20;99.90
14008;DHT22;61651;45.508;12.232;2023-09-18T15:20:41;29.20;99.90
14008;DHT22;61651;45.508;12.232;2023-09-18T15:23:43;29.20;99.90
14008;DHT22;61651;45.508;12.232;2023-09-18T15:26:47;29.10;99.90
14008;DHT22;61651;45.508;12.232;2023-09-18T15:29:49;29.10;99.90
14008;DHT22;61651;45.508;12.232;2023-09-18T15:32:52;29.00;99.90
14008;DHT22;61651;45.508;12.232;2023-09-18T15:35:54;29.00;99.90
14008;DHT22;61651;45.508;12.232;2023-09-18T15:38:57;28.80;99.90
14008;DHT22;61651;45.508;12.232;2023-09-18T15:42:01;28.80;99.90
14008;DHT22;61651;45.508;12.232;2023-09-18T15:45:06;28.70;99.90
14008;DHT22;61651;45.508;12.232;2023-09-18T15:48:09;28.70;99.90
14008;DHT22;61651;45.508;12.232;2023-09-18T15:51:11;28.80;99.90
14008;DHT22;61651;45.508;12.232;2023-09-18T15:54:13;28.90;99.90
14008;DHT22;61651;45.508;12.232;2023-09-18T15:57:17;28.90;99.90
14008;DHT22;61651;45.508;12.232;2023-09-18T16:00:19;28.80;99.90
14008;DHT22;61651;45.508;12.232;2023-09-18T16:03:21;28.70;99.90
14008;DHT22;61651;45.508;12.232;2023-09-18T16:06:23;28.60;99.90
14008;DHT22;61651;45.508;12.232;2023-09-18T16:09:26;28.50;99.90
14008;DHT22;61651;45.508;12.232;2023-09-18T16:12:30;28.40;99.90
14008;DHT22;61651;45.508;12.232;2023-09-18T16:15:34;28.30;99.90
14008;DHT22;61651;45.508;12.232;2023-09-18T16:18:36;28.30;99.90
14008;DHT22;61651;45.508;12.232;2023-09-18T16:21:38;28.20;99.90
14008;DHT22;61651;45.508;12.232;2023-09-18T16:24:40;28.10;99.90
14008;DHT22;61651;45.508;12.232;2023-09-18T16:27:44;28.10;99.90
14008;DHT22;61651;45.508;12.232;2023-09-18T16:30:46;28.10;99.90
14008;DHT22;61651;45.508;12.232;2023-09-18T16:33:48;28.00;99.90
14008;DHT22;61651;45.508;12.232;2023-09-18T16:36:51;28.00;99.90
14008;DHT22;61651;45.508;12.232;2023-09-18T16:39:53;27.90;99.90
14008;DHT22;61651;45.508;12.232;2023-09-18T16:42:56;27.80;99.90
14008;DHT22;61651;45.508;12.232;2023-09-18T16:45:58;27.80;99.90
14008;DHT22;61651;45.508;12.232;2023-09-18T16:49:00;27.70;99.90
14008;DHT22;61651;45.508;12.232;2023-09-18T16:52:02;27.70;99.90
14008;DHT22;61651;45.508;12.232;2023-09-18T16:55:06;27.70;99.90
14008;DHT22;61651;45.508;12.232;2023-09-18T16:58:10;27.60;99.90
14008;DHT22;61651;45.508;12.232;2023-09-18T17:01:12;27.50;99.90
14008;DHT22;61651;45.508;12.232;2023-09-18T17:04:14;27.50;99.90
14008;DHT22;61651;45.508;12.232;2023-09-18T17:07:16;27.50;99.90
14008;DHT22;61651;45.508;12.232;2023-09-18T17:10:18;27.50;99.90
14008;DHT22;61651;45.508;12.232;2023-09-18T17:13:22;27.40;99.90
14008;DHT22;61651;45.508;12.232;2023-09-18T17:16:24;27.40;99.90
14008;DHT22;61651;45.508;12.232;2023-09-18T17:19:26;27.30;99.90
14008;DHT22;61651;45.508;12.232;2023-09-18T17:22:28;27.30;99.90
14008;DHT22;61651;45.508;12.232;2023-09-18T17:25:30;27.30;99.90
14008;DHT22;61651;45.508;12.232;2023-09-18T17:28:35;27.30;99.90
14008;DHT22;61651;45.508;12.232;2023-09-18T17:31:37;27.30;99.90
14008;DHT22;61651;45.508;12.232;2023-09-18T17:34:39;27.30;99.90
14008;DHT22;61651;45.508;12.232;2023-09-18T17:37:42;27.30;99.90
14008;DHT22;61651;45.508;12.232;2023-09-18T17:40:44;27.30;99.90
14008;DHT22;61651;45.508;12.232;2023-09-18T17:43:47;27.30;99.90
14008;DHT22;61651;45.508;12.232;2023-09-18T17:46:49;27.20;99.90
14008;DHT22;61651;45.508;12.232;2023-09-18T17:49:51;27.20;99.90
14008;DHT22;61651;45.508;12.232;2023-09-18T17:52:53;27.10;99.90
14008;DHT22;61651;45.508;12.232;2023-09-18T17:55:55;27.10;99.90
14008;DHT22;61651;45.508;12.232;2023-09-18T17:58:59;27.10;99.90
14008;DHT22;61651;45.508;12.232;2023-09-18T18:02:02;27.10;99.90
14008;DHT22;61651;45.508;12.232;2023-09-18T18:05:06;27.00;99.90
14008;DHT22;61651;45.508;12.232;2023-09-18T18:08:08;27.00;99.90
14008;DHT22;61651;45.508;12.232;2023-09-18T18:11:10;26.90;99.90
14008;DHT22;61651;45.508;12.232;2023-09-18T18:14:15;26.80;99.90
14008;DHT22;61651;45.508;12.232;2023-09-18T18:17:17;26.60;99.90
14008;DHT22;61651;45.508;12.232;2023-09-18T18:20:19;26.60;99.90
14008;DHT22;61651;45.508;12.232;2023-09-18T18:23:21;26.60;99.90
14008;DHT22;61651;45.508;12.232;2023-09-18T18:26:23;26.60;99.90
14008;DHT22;61651;45.508;12.232;2023-09-18T18:29:29;26.60;99.90
14008;DHT22;61651;45.508;12.232;2023-09-18T18:32:31;26.60;99.90
14008;DHT22;61651;45.508;12.232;2023-09-18T18:35:33;26.60;99.90
14008;DHT22;61651;45.508;12.232;2023-09-18T18:38:35;26.60;99.90
14008;DHT22;61651;45.508;12.232;2023-09-18T18:41:38;26.70;99.90
14008;DHT22;61651;45.508;12.232;2023-09-18T18:44:42;26.60;99.90
14008;DHT22;61651;45.508;12.232;2023-09-18T18:47:45;26.70;99.90
14008;DHT22;61651;45.508;12.232;2023-09-18T18:50:48;26.60;99.90
14008;DHT22;61651;45.508;12.232;2023-09-18T18:53:50;26.60;99.90
14008;DHT22;61651;45.508;12.232;2023-09-18T18:56:52;26.70;99.90
14008;DHT22;61651;45.508;12.232;2023-09-18T18:59:56;26.70;99.90
14008;DHT22;61651;45.508;12.232;2023-09-18T19:02:58;26.70;99.90